KBYH

Arkansas International Airport

Blytheville, Arkansas, USA
METAR KBYH 182159Z 18004KT 10SM SCT060 34/21 A2990
Observed Flight Rules
Sep-18 @ 21:59 UTC (7 hours ago) Visual Flight Rules
Wind Visibility Clouds
180° at 4 knots 10 miles
  • Scattered at 6,000' AGL
Temperatures Readings
Current 34°C / 93°F
Dewpoint 21°C / 70°F
Humidity 47%
Altimeter 29.9" Hg
Pressure 1013 hPa
Elevation 78
METAR KBYH 182159Z 18004KT 10SM SCT060 34/21 A2990
Observed Flight Rules
Sep-18 @ 21:59 UTC
(7 hours ago)
VFR
Wind Visibility
180° at 4 knots 10 miles
Clouds
  • Scattered at 6,000' AGL
Temperature Dewpoint
34°C / 93°F 21°C / 70°F
Humidity Altimeter Pressure
47% 29.9" Hg 1013 hPa